Time;durP1;ratioP1;P1;durP2;ratioP2;P2;SDS_P1;SDS_P2;PMS_P1;PMS_P2;Temp;Humidity;BMP_temperature;BMP_pressure;BME280_temperature;BME280_humidity;BME280_pressure;Samples;Min_cycle;Max_cycle;Signal;HPM_P1;HPM_P2
2024/03/07 00:00:36;;;;;;;40.25;19.05;;;5.60;99.90;;;;;;5025332;28;20128;-70
2024/03/07 00:03:03;;;;;;;41.30;18.98;;;5.70;99.90;;;;;;5027472;28;21080;-70
2024/03/07 00:05:30;;;;;;;42.72;19.92;;;5.70;99.90;;;;;;5027074;28;20050;-70
2024/03/07 00:07:58;;;;;;;93.00;20.17;;;5.70;99.90;;;;;;5026654;28;20042;-69
2024/03/07 00:10:25;;;;;;;57.03;18.95;;;5.70;99.90;;;;;;5026729;28;20119;-71
2024/03/07 00:12:51;;;;;;;42.28;19.25;;;5.60;99.90;;;;;;5039876;28;20628;-70
2024/03/07 00:15:18;;;;;;;50.55;18.92;;;5.60;99.90;;;;;;5027943;28;20049;-70
2024/03/07 00:17:45;;;;;;;41.15;17.90;;;5.60;99.90;;;;;;5027708;28;20091;-68
2024/03/07 00:20:15;;;;;;;49.53;21.52;;;5.60;99.90;;;;;;5026605;28;20056;-68
2024/03/07 00:22:43;;;;;;;49.35;18.52;;;5.70;99.90;;;;;;5025566;28;20045;-69
2024/03/07 00:25:11;;;;;;;66.25;21.13;;;5.70;99.90;;;;;;5028314;28;20409;-70
2024/03/07 00:27:38;;;;;;;62.78;22.63;;;5.70;99.90;;;;;;5026787;28;20073;-69
2024/03/07 00:30:13;;;;;;;65.55;22.00;;;5.70;99.90;;;;;;5026052;28;20106;-69
2024/03/07 00:32:40;;;;;;;52.90;22.15;;;5.80;99.90;;;;;;5024317;28;20045;-69
2024/03/07 00:35:10;;;;;;;67.43;22.50;;;5.80;99.90;;;;;;5027034;28;20111;-69
2024/03/07 00:37:37;;;;;;;67.22;22.02;;;5.80;99.90;;;;;;5025773;28;20140;-69
2024/03/07 00:40:04;;;;;;;60.67;22.42;;;5.80;99.90;;;;;;5026757;28;20077;-70
2024/03/07 00:42:31;;;;;;;54.55;23.80;;;5.80;99.90;;;;;;5027713;28;20053;-70
2024/03/07 00:44:58;;;;;;;51.60;20.88;;;5.90;99.90;;;;;;5026862;28;20129;-69
2024/03/07 00:47:24;;;;;;;64.43;24.33;;;5.90;99.90;;;;;;5027213;28;20091;-70
2024/03/07 00:49:51;;;;;;;58.28;25.10;;;6.00;99.90;;;;;;5026895;28;20515;-69
2024/03/07 00:52:18;;;;;;;49.88;23.88;;;6.00;99.90;;;;;;5024721;28;20408;-69
2024/03/07 00:54:45;;;;;;;54.70;25.38;;;6.00;99.90;;;;;;5027441;28;20076;-69
2024/03/07 00:57:12;;;;;;;86.05;26.23;;;6.10;99.90;;;;;;5034279;28;20041;-70
2024/03/07 00:59:38;;;;;;;58.00;26.45;;;6.10;99.90;;;;;;5027494;28;20045;-70
2024/03/07 01:02:05;;;;;;;69.35;28.45;;;6.10;99.90;;;;;;5025197;28;20141;-70
2024/03/07 01:04:33;;;;;;;55.03;27.20;;;6.10;99.90;;;;;;5027611;28;20076;-70
2024/03/07 01:07:00;;;;;;;56.30;27.10;;;6.20;99.90;;;;;;5025862;28;20288;-70
2024/03/07 01:09:30;;;;;;;69.72;28.05;;;6.20;99.90;;;;;;5026851;28;20049;-70
2024/03/07 01:11:58;;;;;;;68.03;28.33;;;6.20;99.90;;;;;;5026798;28;20060;-69
2024/03/07 01:14:25;;;;;;;73.50;29.60;;;6.40;99.90;;;;;;5026207;28;20053;-68
2024/03/07 01:16:53;;;;;;;61.65;29.63;;;6.30;99.90;;;;;;5026400;28;20045;-70
2024/03/07 01:19:20;;;;;;;65.07;31.00;;;6.30;99.90;;;;;;5026247;28;20084;-70
2024/03/07 01:21:48;;;;;;;60.58;29.75;;;6.30;99.90;;;;;;5027095;28;20409;-70
2024/03/07 01:24:17;;;;;;;68.45;29.88;;;6.30;99.90;;;;;;5026335;28;20517;-69
2024/03/07 01:26:45;;;;;;;68.35;31.38;;;6.30;99.90;;;;;;5026622;28;20042;-70
2024/03/07 01:29:12;;;;;;;59.50;28.15;;;6.30;99.90;;;;;;5026773;28;20052;-69
2024/03/07 01:31:39;;;;;;;64.10;28.95;;;6.30;99.90;;;;;;5025780;28;20088;-71
2024/03/07 01:34:05;;;;;;;73.43;30.05;;;6.30;99.90;;;;;;5038293;28;20068;-70
2024/03/07 01:36:32;;;;;;;66.25;30.65;;;6.30;99.90;;;;;;5030511;28;20128;-69
2024/03/07 01:38:59;;;;;;;69.60;31.55;;;6.40;99.90;;;;;;5026564;28;20511;-69
2024/03/07 01:41:26;;;;;;;67.25;30.35;;;6.40;99.90;;;;;;5025688;28;20516;-69
2024/03/07 01:43:53;;;;;;;73.65;30.15;;;6.40;99.90;;;;;;5024954;28;20551;-71
2024/03/07 01:46:20;;;;;;;77.13;32.78;;;6.40;99.90;;;;;;5026088;28;20084;-70
2024/03/07 01:48:47;;;;;;;73.10;31.33;;;6.40;99.90;;;;;;5025508;28;20050;-71
2024/03/07 01:51:15;;;;;;;64.80;32.30;;;6.50;99.90;;;;;;5016012;28;20042;-71
2024/03/07 01:53:41;;;;;;;76.03;34.15;;;6.40;99.90;;;;;;5027892;28;20053;-68
2024/03/07 01:56:09;;;;;;;69.70;33.88;;;6.40;99.90;;;;;;5024695;28;20049;-68
2024/03/07 01:58:36;;;;;;;73.55;32.15;;;6.40;99.90;;;;;;5024865;28;20060;-68
2024/03/07 02:01:03;;;;;;;69.93;30.10;;;6.40;99.90;;;;;;5024825;28;20862;-68
2024/03/07 02:03:30;;;;;;;69.85;31.35;;;6.50;99.90;;;;;;5024866;28;20523;-68
2024/03/07 02:05:57;;;;;;;78.05;33.47;;;6.50;99.90;;;;;;5023989;28;20492;-71
2024/03/07 02:08:23;;;;;;;72.40;30.42;;;6.50;99.90;;;;;;5026048;28;20080;-69
2024/03/07 02:10:51;;;;;;;72.13;32.90;;;6.60;99.90;;;;;;5025409;28;20061;-69
2024/03/07 02:13:18;;;;;;;66.85;31.40;;;6.50;99.90;;;;;;5025711;28;20622;-69
2024/03/07 02:15:44;;;;;;;65.00;30.10;;;6.60;99.90;;;;;;5024597;28;20516;-70
2024/03/07 02:18:11;;;;;;;66.53;31.23;;;6.60;99.90;;;;;;5024153;28;20045;-69
2024/03/07 02:20:44;;;;;;;72.43;31.67;;;6.60;99.90;;;;;;5008357;28;20103;-69
2024/03/07 02:23:10;;;;;;;71.70;32.47;;;6.60;99.90;;;;;;5026513;28;20238;-69
2024/03/07 02:25:37;;;;;;;65.45;29.35;;;6.60;99.90;;;;;;5029550;28;20103;-69
2024/03/07 02:28:04;;;;;;;65.13;30.25;;;6.60;99.90;;;;;;5029989;28;20038;-68
2024/03/07 02:30:32;;;;;;;72.45;33.13;;;6.60;99.90;;;;;;5029752;28;20099;-68
2024/03/07 02:33:06;;;;;;;78.07;34.00;;;6.60;99.90;;;;;;5025302;28;20068;-68
2024/03/07 02:35:34;;;;;;;73.35;32.88;;;6.60;99.90;;;;;;5027553;28;20073;-69
2024/03/07 02:38:03;;;;;;;82.28;34.20;;;6.60;99.90;;;;;;5026834;28;20049;-69
2024/03/07 02:40:30;;;;;;;75.75;32.78;;;6.70;99.90;;;;;;5028105;28;20053;-69
2024/03/07 02:42:57;;;;;;;72.63;33.80;;;6.70;99.90;;;;;;5029784;28;20100;-70
2024/03/07 02:45:25;;;;;;;72.05;33.50;;;6.70;99.90;;;;;;5028923;28;20467;-70
2024/03/07 02:47:53;;;;;;;73.93;32.95;;;6.70;99.90;;;;;;5030142;28;20121;-69
2024/03/07 02:50:22;;;;;;;73.32;34.22;;;6.70;99.90;;;;;;5033057;28;20053;-69
2024/03/07 02:52:49;;;;;;;78.75;33.25;;;6.70;99.90;;;;;;5032326;28;20358;-69
2024/03/07 02:55:16;;;;;;;71.30;32.55;;;6.70;99.90;;;;;;5029831;28;20129;-69
2024/03/07 02:57:43;;;;;;;74.13;35.42;;;6.80;99.90;;;;;;5060346;28;20151;-69
2024/03/07 03:00:19;;;;;;;83.00;36.38;;;6.70;99.90;;;;;;5028645;28;20045;-69
2024/03/07 03:02:47;;;;;;;74.18;34.80;;;6.80;99.90;;;;;;5027687;28;20073;-69
2024/03/07 03:05:15;;;;;;;74.22;34.08;;;6.80;99.90;;;;;;5030969;28;20045;-70
2024/03/07 03:07:42;;;;;;;65.72;31.25;;;6.80;99.90;;;;;;5033044;28;20516;-69
2024/03/07 03:10:09;;;;;;;72.70;33.38;;;6.80;99.90;;;;;;5036072;28;20053;-69
2024/03/07 03:12:39;;;;;;;68.13;32.75;;;6.90;99.90;;;;;;5029644;28;20049;-69
2024/03/07 03:15:07;;;;;;;65.50;32.70;;;6.90;99.90;;;;;;5029584;28;20037;-69
2024/03/07 03:17:35;;;;;;;70.38;32.22;;;6.90;99.90;;;;;;5026014;28;20053;-68
2024/03/07 03:20:04;;;;;;;72.45;35.92;;;6.90;99.90;;;;;;5032074;28;20088;-68
2024/03/07 03:22:31;;;;;;;70.50;35.08;;;7.00;99.90;;;;;;5028328;28;20124;-69
2024/03/07 03:24:57;;;;;;;68.03;33.33;;;7.00;99.90;;;;;;5029097;28;20053;-69
2024/03/07 03:27:24;;;;;;;63.13;32.53;;;7.00;99.90;;;;;;5026751;28;20074;-70
2024/03/07 03:29:51;;;;;;;60.45;31.08;;;7.00;99.90;;;;;;5029149;28;20095;-69
2024/03/07 03:32:18;;;;;;;66.10;31.92;;;7.00;99.90;;;;;;5027287;28;20079;-69
2024/03/07 03:34:44;;;;;;;56.60;29.65;;;7.00;99.90;;;;;;5019332;28;20301;-69
2024/03/07 03:37:11;;;;;;;65.95;32.67;;;7.00;99.90;;;;;;5027326;28;20037;-69
2024/03/07 03:39:38;;;;;;;57.15;30.38;;;6.90;99.90;;;;;;5020150;28;20124;-69
2024/03/07 03:42:06;;;;;;;54.05;28.15;;;6.90;99.90;;;;;;5026737;28;20103;-69
2024/03/07 03:44:34;;;;;;;45.42;25.67;;;6.90;99.90;;;;;;5029034;28;20049;-69
2024/03/07 03:47:02;;;;;;;51.05;27.67;;;6.90;99.90;;;;;;5029537;28;20041;-68
2024/03/07 03:49:29;;;;;;;54.58;27.55;;;6.90;99.90;;;;;;5025808;28;20050;-69
2024/03/07 03:51:55;;;;;;;56.05;28.17;;;6.90;99.90;;;;;;5028366;28;20049;-68
2024/03/07 03:54:22;;;;;;;52.63;29.00;;;6.90;99.90;;;;;;5027324;28;20049;-70
2024/03/07 03:56:49;;;;;;;49.25;29.27;;;7.00;99.90;;;;;;5027948;28;20152;-71
2024/03/07 03:59:16;;;;;;;53.65;27.58;;;6.90;99.90;;;;;;5027313;28;20053;-69
2024/03/07 04:01:45;;;;;;;51.28;28.65;;;6.90;99.90;;;;;;5027852;28;20095;-70
2024/03/07 04:04:12;;;;;;;48.92;27.08;;;6.80;99.90;;;;;;5026978;28;20045;-70
2024/03/07 04:06:40;;;;;;;52.88;26.30;;;6.80;99.90;;;;;;5024736;28;20046;-70
2024/03/07 04:09:07;;;;;;;53.70;28.75;;;6.80;99.90;;;;;;5031032;28;20754;-69
2024/03/07 04:11:33;;;;;;;48.67;26.60;;;6.80;99.90;;;;;;5033493;28;20300;-69
2024/03/07 04:14:01;;;;;;;52.42;27.35;;;6.70;99.90;;;;;;5026674;28;20208;-67
2024/03/07 04:16:28;;;;;;;52.55;28.42;;;6.70;99.90;;;;;;5027522;28;20037;-68
2024/03/07 04:18:54;;;;;;;53.65;28.17;;;6.70;99.90;;;;;;5026916;28;20074;-69
2024/03/07 04:21:21;;;;;;;52.75;27.52;;;6.70;99.90;;;;;;5034418;28;20118;-69
2024/03/07 04:23:48;;;;;;;56.60;28.42;;;6.70;99.90;;;;;;5026758;28;20480;-68
2024/03/07 04:26:16;;;;;;;49.35;26.27;;;6.70;99.90;;;;;;5023144;28;20589;-69
2024/03/07 04:28:43;;;;;;;55.92;29.05;;;6.70;99.90;;;;;;5028662;28;20056;-68
2024/03/07 04:31:09;;;;;;;56.05;26.98;;;6.70;99.90;;;;;;5026596;28;20131;-68
2024/03/07 04:33:37;;;;;;;53.92;28.38;;;6.70;99.90;;;;;;5025227;28;20064;-70
2024/03/07 04:36:04;;;;;;;55.92;28.75;;;6.70;99.90;;;;;;5026117;28;20049;-69
2024/03/07 04:38:31;;;;;;;60.92;28.88;;;6.80;99.90;;;;;;5025592;28;20053;-70
2024/03/07 04:40:58;;;;;;;59.10;28.33;;;6.70;99.90;;;;;;5027135;28;20152;-68
2024/03/07 04:43:26;;;;;;;59.47;30.20;;;6.70;99.90;;;;;;5026287;28;20429;-70
2024/03/07 04:45:52;;;;;;;55.83;28.48;;;6.70;99.90;;;;;;5026978;28;20123;-70
2024/03/07 04:48:19;;;;;;;59.22;28.48;;;6.70;99.90;;;;;;5026752;28;20088;-70
2024/03/07 04:50:46;;;;;;;62.80;29.27;;;6.70;99.90;;;;;;5024086;28;20053;-70
2024/03/07 04:53:13;;;;;;;66.90;30.50;;;6.60;99.90;;;;;;5025870;28;20544;-69
2024/03/07 04:55:40;;;;;;;60.45;29.65;;;6.60;99.90;;;;;;5026566;28;20084;-70
2024/03/07 04:58:07;;;;;;;62.05;32.60;;;6.70;99.90;;;;;;5025893;28;20049;-70
2024/03/07 05:00:33;;;;;;;64.85;29.08;;;6.70;99.90;;;;;;5026156;28;20085;-69
2024/03/07 05:03:00;;;;;;;61.17;29.33;;;6.60;99.90;;;;;;5025670;28;20053;-69
2024/03/07 05:05:28;;;;;;;60.20;28.00;;;6.60;99.90;;;;;;5025497;28;20052;-69
2024/03/07 05:07:55;;;;;;;65.30;30.75;;;6.60;99.90;;;;;;5025505;28;20504;-69
2024/03/07 05:10:22;;;;;;;59.95;29.95;;;6.60;99.90;;;;;;5026318;28;20052;-69
2024/03/07 05:12:50;;;;;;;65.22;31.92;;;6.70;99.90;;;;;;5026561;28;20123;-69
2024/03/07 05:15:17;;;;;;;66.63;32.20;;;6.70;99.90;;;;;;5025733;28;20443;-69
2024/03/07 05:17:44;;;;;;;61.55;29.08;;;6.70;99.90;;;;;;5025120;28;20041;-69
2024/03/07 05:20:12;;;;;;;65.28;31.52;;;6.70;99.90;;;;;;5026187;28;20769;-69
2024/03/07 05:22:51;;;;;;;62.70;30.13;;;6.70;99.90;;;;;;5026312;28;20307;-69
2024/03/07 05:25:19;;;;;;;64.38;30.30;;;6.70;99.90;;;;;;5026723;28;20052;-69
2024/03/07 05:27:46;;;;;;;69.18;33.53;;;6.60;99.90;;;;;;5026896;28;20049;-69
2024/03/07 05:30:15;;;;;;;66.93;33.33;;;6.60;99.90;;;;;;5024465;28;20045;-69
2024/03/07 05:32:42;;;;;;;67.57;34.05;;;6.60;99.90;;;;;;5025860;28;20522;-69
2024/03/07 05:35:11;;;;;;;75.00;34.60;;;6.60;99.90;;;;;;5024274;28;20281;-69
2024/03/07 05:37:41;;;;;;;65.47;32.28;;;6.70;99.90;;;;;;5025510;28;20076;-69
2024/03/07 05:40:09;;;;;;;64.75;32.25;;;6.70;99.90;;;;;;5025975;28;20085;-70
2024/03/07 05:42:35;;;;;;;69.15;34.13;;;6.70;99.90;;;;;;5021226;28;20046;-70
2024/03/07 05:45:03;;;;;;;64.03;31.27;;;6.70;99.90;;;;;;5020336;28;20401;-69
2024/03/07 05:47:30;;;;;;;58.65;30.42;;;6.80;99.90;;;;;;5013794;28;20045;-69
2024/03/07 05:49:57;;;;;;;65.10;32.90;;;6.80;99.90;;;;;;5024905;28;20488;-69
2024/03/07 05:52:24;;;;;;;67.95;32.00;;;6.80;99.90;;;;;;5024559;28;20049;-69
2024/03/07 05:54:50;;;;;;;56.28;29.77;;;6.90;99.90;;;;;;5026346;28;20076;-69
2024/03/07 05:57:17;;;;;;;57.50;30.38;;;6.90;99.90;;;;;;5018404;28;20065;-69
2024/03/07 05:59:46;;;;;;;54.92;31.08;;;7.00;99.90;;;;;;5024888;28;20466;-69
2024/03/07 06:02:15;;;;;;;59.22;33.40;;;7.00;99.90;;;;;;5024576;28;20185;-69
2024/03/07 06:04:43;;;;;;;63.78;31.33;;;7.00;99.90;;;;;;5026110;28;20059;-69
2024/03/07 06:07:10;;;;;;;59.00;30.02;;;7.00;99.90;;;;;;5024442;28;20053;-68
2024/03/07 06:09:37;;;;;;;59.55;29.70;;;7.10;99.90;;;;;;5025812;28;20049;-68
2024/03/07 06:12:08;;;;;;;65.13;30.00;;;7.00;99.90;;;;;;5025626;28;20103;-69
2024/03/07 06:14:49;;;;;;;69.07;32.97;;;7.10;99.90;;;;;;5026369;28;20136;-69
2024/03/07 06:17:19;;;;;;;61.65;29.65;;;7.10;99.90;;;;;;5025226;28;20092;-69
2024/03/07 06:19:47;;;;;;;54.85;29.90;;;7.20;99.90;;;;;;5025688;28;20081;-69
2024/03/07 06:22:13;;;;;;;52.80;28.83;;;7.10;99.90;;;;;;5025403;28;20041;-70
2024/03/07 06:24:42;;;;;;;62.17;31.20;;;7.10;99.90;;;;;;5037699;28;20496;-70
2024/03/07 06:27:16;;;;;;;56.50;28.20;;;7.10;99.90;;;;;;5025565;28;20045;-69
2024/03/07 06:29:43;;;;;;;;;;;7.20;99.90;;;;;;5024861;28;20745;-69
2024/03/07 06:32:10;;;;;;;51.75;28.17;;;7.20;99.90;;;;;;5024881;28;20024;-69
2024/03/07 06:34:38;;;;;;;50.50;29.83;;;7.20;99.90;;;;;;5029131;28;20059;-71
2024/03/07 06:37:05;;;;;;;60.80;31.17;;;7.20;99.90;;;;;;5029010;28;20205;-69
2024/03/07 06:39:32;;;;;;;56.67;31.73;;;7.20;99.90;;;;;;5025822;28;20079;-68
2024/03/07 06:42:00;;;;;;;58.80;31.83;;;7.20;99.90;;;;;;5027659;28;20463;-69
2024/03/07 06:44:27;;;;;;;54.53;31.23;;;7.20;99.90;;;;;;5028056;28;20045;-70
2024/03/07 06:46:54;;;;;;;57.03;33.88;;;7.20;99.90;;;;;;5023758;28;20115;-69
2024/03/07 06:49:21;;;;;;;54.45;31.80;;;7.20;99.90;;;;;;5034212;28;20045;-68
2024/03/07 06:51:47;;;;;;;54.88;32.25;;;7.20;99.90;;;;;;5036635;28;20065;-68
2024/03/07 06:54:14;;;;;;;60.00;32.60;;;7.20;99.90;;;;;;5026878;28;20616;-70
2024/03/07 06:56:43;;;;;;;59.85;32.85;;;7.20;99.90;;;;;;5024352;28;20093;-68
2024/03/07 06:59:10;;;;;;;60.78;31.48;;;7.20;99.90;;;;;;5027811;28;20045;-68
2024/03/07 07:01:37;;;;;;;60.42;32.53;;;7.30;99.90;;;;;;5023917;28;20183;-69
2024/03/07 07:04:04;;;;;;;62.50;34.33;;;7.30;99.90;;;;;;5022625;28;20484;-68
2024/03/07 07:06:34;;;;;;;58.33;32.05;;;7.30;99.90;;;;;;5015227;28;20050;-69
2024/03/07 07:09:03;;;;;;;64.45;34.13;;;7.30;99.90;;;;;;5030297;28;20138;-69
2024/03/07 07:11:30;;;;;;;64.15;34.67;;;7.30;99.90;;;;;;5022684;28;20111;-69
2024/03/07 07:14:02;;;;;;;58.78;34.55;;;7.30;99.90;;;;;;5028623;28;20127;-66
2024/03/07 07:16:31;;;;;;;62.30;34.15;;;7.20;99.90;;;;;;5036105;28;20052;-68
2024/03/07 07:18:57;;;;;;;64.38;35.67;;;7.20;99.90;;;;;;5029074;28;20240;-67
2024/03/07 07:21:24;;;;;;;66.35;36.78;;;7.20;99.90;;;;;;5029892;28;20045;-69
2024/03/07 07:23:51;;;;;;;63.85;36.20;;;7.20;99.90;;;;;;5030118;28;20053;-69
2024/03/07 07:26:18;;;;;;;73.25;38.85;;;7.20;99.90;;;;;;5032530;28;20053;-68
2024/03/07 07:28:45;;;;;;;72.82;38.60;;;7.20;99.90;;;;;;5028107;28;20124;-67
2024/03/07 07:31:11;;;;;;;70.93;37.95;;;7.30;99.90;;;;;;5025328;28;20702;-68
2024/03/07 07:33:38;;;;;;;67.05;36.88;;;7.30;99.90;;;;;;5028227;28;20057;-72
2024/03/07 07:36:05;;;;;;;71.93;39.40;;;7.30;99.90;;;;;;5027223;28;20565;-67
2024/03/07 07:38:32;;;;;;;68.95;38.05;;;7.30;99.90;;;;;;5032558;28;20049;-68
2024/03/07 07:41:01;;;;;;;71.32;40.10;;;7.40;99.90;;;;;;5024321;28;20045;-67
2024/03/07 07:43:28;;;;;;;70.80;39.33;;;7.40;99.90;;;;;;5027205;28;20524;-67
2024/03/07 07:46:08;;;;;;;70.18;37.45;;;7.60;99.90;;;;;;5021594;28;20167;-65
2024/03/07 07:48:35;;;;;;;77.43;39.60;;;7.40;99.90;;;;;;5026768;28;20091;-66
2024/03/07 07:51:05;;;;;;;69.15;39.60;;;7.50;99.90;;;;;;5021023;28;20607;-65
2024/03/07 07:53:32;;;;;;;75.32;40.63;;;7.50;99.90;;;;;;5020175;28;20447;-68
2024/03/07 07:55:59;;;;;;;72.50;39.92;;;7.50;99.90;;;;;;5026449;28;20045;-66
2024/03/07 07:58:26;;;;;;;68.47;38.15;;;7.50;99.90;;;;;;5031498;28;20065;-67
2024/03/07 08:00:53;;;;;;;74.10;39.97;;;7.50;99.90;;;;;;5019196;28;20077;-68
2024/03/07 08:03:22;;;;;;;72.55;41.92;;;7.50;99.90;;;;;;5023335;28;20145;-67
2024/03/07 08:05:49;;;;;;;74.18;41.38;;;7.60;99.90;;;;;;5028164;28;20063;-67
2024/03/07 08:08:18;;;;;;;72.97;40.83;;;7.60;99.90;;;;;;5025676;28;20047;-66
2024/03/07 08:10:45;;;;;;;68.75;39.00;;;7.60;99.90;;;;;;5022943;28;20125;-66
2024/03/07 08:13:13;;;;;;;71.43;39.10;;;7.60;99.90;;;;;;5032659;28;20049;-67
2024/03/07 08:15:40;;;;;;;77.57;41.30;;;7.70;99.90;;;;;;5027180;28;20053;-68
2024/03/07 08:18:10;;;;;;;72.22;41.20;;;7.80;99.90;;;;;;5027558;28;20467;-67
2024/03/07 08:20:39;;;;;;;67.15;40.35;;;7.80;99.90;;;;;;5025542;28;20572;-67
2024/03/07 08:23:07;;;;;;;71.70;38.30;;;7.80;99.90;;;;;;5028232;28;20045;-67
2024/03/07 08:25:34;;;;;;;73.18;40.90;;;7.80;99.90;;;;;;5025354;28;20152;-67
2024/03/07 08:28:01;;;;;;;74.47;39.97;;;7.80;99.90;;;;;;5019585;28;20055;-68
2024/03/07 08:30:28;;;;;;;66.63;36.78;;;7.80;99.90;;;;;;5030965;28;20051;-68
2024/03/07 08:32:56;;;;;;;71.07;38.08;;;7.90;99.90;;;;;;5029229;28;20048;-67
2024/03/07 08:35:24;;;;;;;68.82;37.88;;;7.90;99.90;;;;;;5027517;28;20180;-67
2024/03/07 08:37:55;;;;;;;72.35;38.90;;;7.90;99.90;;;;;;5027726;28;20088;-67
2024/03/07 08:40:24;;;;;;;75.00;38.53;;;8.00;99.90;;;;;;5026260;28;20515;-68
2024/03/07 08:42:55;;;;;;;68.47;39.38;;;8.00;99.90;;;;;;5025982;28;20557;-68
2024/03/07 08:45:23;;;;;;;71.10;38.00;;;8.10;99.90;;;;;;5020019;28;20098;-68
2024/03/07 08:47:50;;;;;;;71.35;38.95;;;8.10;99.90;;;;;;5012042;28;20099;-68
2024/03/07 08:50:18;;;;;;;72.63;40.20;;;8.20;99.90;;;;;;5023426;28;20053;-67
2024/03/07 08:52:45;;;;;;;69.80;39.03;;;8.30;99.90;;;;;;5027149;28;20042;-67
2024/03/07 08:55:23;;;;;;;73.55;39.40;;;8.30;99.90;;;;;;5023505;28;20294;-67
2024/03/07 08:57:49;;;;;;;69.15;39.60;;;8.40;99.90;;;;;;5016466;28;20049;-67
2024/03/07 09:00:29;;;;;;;70.70;40.65;;;8.40;99.90;;;;;;5024474;28;20140;-67
2024/03/07 09:02:57;;;;;;;71.95;41.33;;;8.40;99.90;;;;;;5027606;28;20408;-68
2024/03/07 09:05:27;;;;;;;71.68;39.45;;;8.40;99.90;;;;;;5027504;28;20196;-67
2024/03/07 09:07:55;;;;;;;68.25;40.17;;;8.50;99.90;;;;;;5029456;28;20052;-67
2024/03/07 09:10:23;;;;;;;76.80;40.25;;;8.50;99.90;;;;;;5038426;28;20072;-67
2024/03/07 09:12:51;;;;;;;64.75;35.25;;;8.50;99.90;;;;;;5031076;28;20496;-66
2024/03/07 09:15:21;;;;;;;68.18;36.97;;;8.50;99.90;;;;;;5017034;28;20041;-67
2024/03/07 09:17:48;;;;;;;72.38;39.63;;;8.60;99.90;;;;;;5020375;28;20492;-68
2024/03/07 09:20:15;;;;;;;62.67;34.78;;;8.60;99.90;;;;;;5026144;28;20088;-68
2024/03/07 09:22:47;;;;;;;72.63;38.22;;;8.70;99.90;;;;;;5023633;28;20045;-67
2024/03/07 09:25:14;;;;;;;61.85;34.75;;;8.70;99.90;;;;;;5026247;28;20503;-66
2024/03/07 09:27:41;;;;;;;65.30;36.15;;;8.70;99.90;;;;;;5026770;28;20041;-66
2024/03/07 09:30:11;;;;;;;64.55;36.95;;;8.70;99.90;;;;;;5027502;28;20099;-67
2024/03/07 09:32:40;;;;;;;67.68;37.03;;;8.80;99.90;;;;;;5020027;28;20480;-67
2024/03/07 09:35:11;;;;;;;67.72;37.42;;;8.90;99.90;;;;;;5022656;28;20054;-65
2024/03/07 09:37:42;;;;;;;68.30;36.00;;;8.90;99.90;;;;;;5024824;28;20045;-66
2024/03/07 09:40:11;;;;;;;63.25;36.80;;;9.00;99.90;;;;;;5025585;28;20389;-67
2024/03/07 09:42:48;;;;;;;72.88;38.28;;;9.10;99.90;;;;;;5025380;28;20501;-67
2024/03/07 09:45:17;;;;;;;75.13;40.25;;;9.20;99.90;;;;;;5017747;28;20050;-66
2024/03/07 09:47:48;;;;;;;66.50;37.75;;;9.20;99.90;;;;;;5022474;28;20099;-67
2024/03/07 09:50:19;;;;;;;70.28;38.90;;;9.20;99.90;;;;;;5016416;28;20144;-67
2024/03/07 09:52:49;;;;;;;74.70;42.35;;;9.20;99.90;;;;;;5013136;28;20128;-66
2024/03/07 09:55:17;;;;;;;66.20;38.00;;;9.30;99.90;;;;;;5025853;28;20045;-67
2024/03/07 09:57:46;;;;;;;66.13;38.50;;;9.40;99.90;;;;;;5025226;28;20526;-67
2024/03/07 10:00:22;;;;;;;69.65;39.60;;;9.40;99.90;;;;;;5025330;28;20041;-70
2024/03/07 10:02:53;;;;;;;76.82;38.67;;;9.50;99.90;;;;;;5023755;28;20049;-67
2024/03/07 10:05:20;;;;;;;70.38;40.80;;;9.60;99.90;;;;;;5025879;28;20038;-66
2024/03/07 10:07:46;;;;;;;70.93;42.10;;;9.60;99.90;;;;;;5026551;28;20061;-66
2024/03/07 10:10:13;;;;;;;75.75;41.00;;;9.60;99.90;;;;;;5024981;28;20089;-66
2024/03/07 10:12:40;;;;;;;73.68;41.33;;;9.60;99.90;;;;;;5026845;28;20080;-67
2024/03/07 10:15:12;;;;;;;76.53;45.47;;;9.70;99.90;;;;;;5025572;28;20049;-66
2024/03/07 10:17:40;;;;;;;82.68;44.10;;;9.70;99.90;;;;;;5025006;28;20053;-66
2024/03/07 10:20:13;;;;;;;85.10;47.90;;;9.70;99.90;;;;;;5023413;28;20413;-67
2024/03/07 10:22:41;;;;;;;94.47;52.40;;;9.60;99.90;;;;;;5026525;28;20046;-67
2024/03/07 10:25:08;;;;;;;81.68;47.58;;;9.60;99.90;;;;;;5024785;28;20045;-67
2024/03/07 10:27:37;;;;;;;92.25;51.55;;;9.60;99.90;;;;;;5026670;28;20064;-67
2024/03/07 10:30:07;;;;;;;94.57;52.17;;;9.60;99.90;;;;;;5023530;28;20087;-67
2024/03/07 10:32:35;;;;;;;102.57;54.53;;;9.70;99.90;;;;;;5024833;28;20058;-67
2024/03/07 10:35:03;;;;;;;94.93;54.40;;;9.70;99.90;;;;;;5025173;28;20479;-67
2024/03/07 10:37:30;;;;;;;95.05;55.47;;;9.80;99.90;;;;;;5025174;28;20101;-68
2024/03/07 10:39:57;;;;;;;98.82;56.17;;;10.00;99.90;;;;;;5025771;28;20141;-67
2024/03/07 10:42:24;;;;;;;84.97;48.72;;;10.10;99.90;;;;;;5007113;28;20061;-67
2024/03/07 10:44:51;;;;;;;98.05;55.03;;;10.10;99.90;;;;;;5024500;28;20050;-68
2024/03/07 10:47:20;;;;;;;97.35;53.28;;;10.10;99.90;;;;;;5023897;28;20041;-68
2024/03/07 10:50:09;;;;;;;92.82;54.40;;;10.20;99.90;;;;;;5011085;28;20284;-67
2024/03/07 10:52:39;;;;;;;90.97;54.67;;;10.20;99.90;;;;;;5019973;28;20266;-68
2024/03/07 10:55:32;;;;;;;89.22;51.13;;;10.20;99.90;;;;;;5028357;28;20095;-69
2024/03/07 10:58:06;;;;;;;94.00;53.58;;;10.10;99.90;;;;;;5024904;28;20088;-67
2024/03/07 11:00:36;;;;;;;84.97;51.17;;;10.20;99.90;;;;;;5027150;28;20042;-67
2024/03/07 11:03:07;;;;;;;82.13;50.20;;;10.20;99.90;;;;;;5028857;28;20056;-67
2024/03/07 11:05:34;;;;;;;82.32;50.05;;;10.20;99.90;;;;;;5026930;28;20580;-69
2024/03/07 11:08:11;;;;;;;84.00;48.58;;;10.20;99.90;;;;;;5028293;28;20049;-67
2024/03/07 11:10:39;;;;;;;83.63;46.15;;;10.10;99.90;;;;;;5028288;28;20360;-67
2024/03/07 11:13:12;;;;;;;77.97;43.47;;;10.10;99.90;;;;;;5027999;28;20089;-68
2024/03/07 11:15:42;;;;;;;78.45;45.33;;;10.10;99.90;;;;;;5026106;28;20504;-67
2024/03/07 11:18:12;;;;;;;73.18;42.65;;;10.10;99.90;;;;;;5026930;28;20069;-66
2024/03/07 11:20:40;;;;;;;73.53;42.80;;;10.10;99.90;;;;;;5028412;28;20482;-69
2024/03/07 11:23:30;;;;;;;78.07;43.95;;;10.10;99.90;;;;;;5028764;28;20045;-66
2024/03/07 11:26:10;;;;;;;63.53;40.83;;;10.20;99.90;;;;;;5020851;28;20033;-67
2024/03/07 11:28:39;;;;;;;65.28;38.72;;;10.20;99.90;;;;;;5029542;28;20049;-66
2024/03/07 11:31:09;;;;;;;67.68;36.15;;;10.30;99.90;;;;;;5026139;28;20046;-66
2024/03/07 11:33:43;;;;;;;61.00;37.35;;;10.20;99.90;;;;;;5028802;28;20054;-66
2024/03/07 11:36:14;;;;;;;64.00;36.72;;;10.20;99.90;;;;;;5026487;28;20053;-66
2024/03/07 11:38:51;;;;;;;63.00;36.45;;;10.20;99.90;;;;;;5026247;28;20127;-67
2024/03/07 11:41:22;;;;;;;56.13;35.00;;;10.20;99.90;;;;;;5027197;28;20562;-68
2024/03/07 11:43:52;;;;;;;58.03;33.33;;;10.20;99.90;;;;;;5028241;28;20049;-67
2024/03/07 11:46:21;;;;;;;61.75;35.67;;;10.30;99.90;;;;;;5016137;28;20108;-67
2024/03/07 11:48:47;;;;;;;60.75;34.53;;;10.40;99.90;;;;;;5026836;28;20037;-68
2024/03/07 11:51:17;;;;;;;54.58;32.05;;;10.40;99.90;;;;;;5028599;28;20048;-67
2024/03/07 11:53:47;;;;;;;58.72;34.97;;;10.40;99.90;;;;;;5028034;28;20049;-68
2024/03/07 11:56:16;;;;;;;55.75;32.72;;;10.40;99.90;;;;;;5020683;28;20050;-66
2024/03/07 11:58:44;;;;;;;60.33;32.88;;;10.50;99.90;;;;;;5024787;28;20057;-65
2024/03/07 12:01:13;;;;;;;55.83;33.17;;;10.60;99.90;;;;;;5026180;28;20085;-66
2024/03/07 12:03:40;;;;;;;45.92;29.65;;;10.60;99.90;;;;;;5026803;28;20133;-66
2024/03/07 12:06:12;;;;;;;51.50;30.67;;;10.60;99.90;;;;;;5028607;28;20049;-68
2024/03/07 12:08:41;;;;;;;52.85;30.85;;;10.60;99.90;;;;;;5026199;28;20137;-69
2024/03/07 12:11:12;;;;;;;50.35;29.63;;;10.70;99.90;;;;;;5028271;28;20087;-68
2024/03/07 12:13:40;;;;;;;45.55;29.88;;;10.70;99.90;;;;;;5025458;28;20046;-66
2024/03/07 12:16:08;;;;;;;46.00;29.45;;;10.60;99.90;;;;;;5035353;28;20110;-66
2024/03/07 12:18:35;;;;;;;43.65;27.77;;;10.70;99.90;;;;;;5028598;28;20056;-67
2024/03/07 12:21:06;;;;;;;47.45;27.45;;;10.50;99.90;;;;;;5026706;28;20045;-66
2024/03/07 12:23:35;;;;;;;53.33;28.88;;;10.50;99.90;;;;;;5025529;28;20053;-67
2024/03/07 12:26:03;;;;;;;45.78;26.48;;;10.50;99.90;;;;;;5029402;28;20132;-66
2024/03/07 12:28:38;;;;;;;43.58;25.40;;;10.50;99.90;;;;;;5024959;28;20080;-67
2024/03/07 12:31:15;;;;;;;41.10;25.25;;;10.60;99.90;;;;;;5025642;28;20288;-67
2024/03/07 12:33:46;;;;;;;38.72;23.50;;;10.70;99.90;;;;;;5016997;28;20067;-67
2024/03/07 12:36:14;;;;;;;40.40;23.67;;;10.70;99.90;;;;;;5020556;28;20045;-66
2024/03/07 12:38:41;;;;;;;40.97;23.30;;;10.70;99.90;;;;;;5018661;28;20073;-67
2024/03/07 12:41:16;;;;;;;35.90;21.23;;;10.60;99.90;;;;;;5026671;28;20104;-67